logo
Rechercher aéroport 
image banner adimage banner adimage banner ad
image banner ad

EHS033 - Marknesse

Situé à , Netherlands

ICAO - , IATA -

Données fournies par Airmate  

Information générale

Coordonnées: N52°40'52" E5°55'32"
Élévation : feet MSL.
 
Voir autres Aéroports à Gelderland

Données opérationnelles

Special qualification required
Heure actuelle UTC:
Heure actuelle locale:
Météo à : EHLE - Lelystad/Lelystad ( 38 km )
METAR: EHLE 232125Z AUTO 28007KT 250V320 9999 FEW016/// SCT020/// BKN023/// 18/15 Q1018
TAF: TAF EHLE 231657Z 2318/2424 32012KT 9999 SCT025 BECMG 2318/2320 SCT010 BKN015 PROB30 2320/2404 SCT020 BECMG 2400/2403 33007KT SCT025 BECMG 2418/2421 07005KT CAVOK
Voir NOTAMs / SUP AIP / TFR affectant cet aéroport [VIEW]
Fréquences de communication: [VIEW]

Pistes:

Coordonnées de l'aéroport

Adresse: Netherlands

Vue satellite de EHS033